createdAt,value
2022-08-12T00:03:37.167Z,2.00
2022-08-12T00:08:59.257Z,1.90
2022-08-12T00:14:21.304Z,2.10
2022-08-12T00:19:43.970Z,2.40
2022-08-12T00:25:06.839Z,2.00
2022-08-12T00:30:29.604Z,2.20
2022-08-12T00:35:51.563Z,1.80
2022-08-12T00:41:14.433Z,2.20
2022-08-12T00:46:32.892Z,2.10
2022-08-12T00:51:59.138Z,2.20
2022-08-12T00:57:05.808Z,2.20
2022-08-12T01:02:12.668Z,2.40
2022-08-12T01:07:35.595Z,2.30
2022-08-12T01:12:41.982Z,2.00
2022-08-12T01:17:46.413Z,2.40
2022-08-12T01:23:15.833Z,2.30
2022-08-12T01:28:21.351Z,2.50
2022-08-12T01:33:27.626Z,2.40
2022-08-12T01:38:34.879Z,2.40
2022-08-12T01:43:39.608Z,2.00
2022-08-12T01:49:07.818Z,2.30
2022-08-12T01:54:14.402Z,2.20
2022-08-12T01:59:50.391Z,2.20
2022-08-12T02:05:24.316Z,2.70
2022-08-12T02:11:19.334Z,2.70
2022-08-12T02:16:58.677Z,2.40
2022-08-12T02:22:01.918Z,2.60
2022-08-12T02:27:10.721Z,2.30
2022-08-12T02:32:15.586Z,2.50
2022-08-12T02:37:20.784Z,2.40
2022-08-12T02:42:25.547Z,2.50
2022-08-12T02:48:00.649Z,2.40
2022-08-12T02:52:58.587Z,2.40
2022-08-12T02:58:12.050Z,2.50
2022-08-12T03:03:23.327Z,2.60
2022-08-12T03:08:32.614Z,2.80
2022-08-12T03:13:41.874Z,3.00
2022-08-12T03:18:46.442Z,2.40
2022-08-12T03:23:49.928Z,2.70
2022-08-12T03:28:54.569Z,3.10
2022-08-12T03:34:03.295Z,2.80
2022-08-12T03:39:19.067Z,2.40
2022-08-12T03:44:56.525Z,2.60
2022-08-12T03:50:19.186Z,2.80
2022-08-12T03:55:40.929Z,2.40
2022-08-12T04:00:46.347Z,3.20
2022-08-12T04:05:55.485Z,3.30
2022-08-12T04:11:18.410Z,3.40
2022-08-12T04:16:22.643Z,3.20
2022-08-12T04:21:26.055Z,3.40
2022-08-12T04:26:29.879Z,3.70
2022-08-12T04:31:40.252Z,4.90
2022-08-12T04:36:45.408Z,3.80
2022-08-12T04:47:02.683Z,3.40
2022-08-12T04:52:06.500Z,3.30
2022-08-12T04:57:10.435Z,3.40
2022-08-12T05:07:21.350Z,3.50
2022-08-12T05:12:26.886Z,3.60
2022-08-12T05:17:30.361Z,3.40
2022-08-12T05:22:37.198Z,2.90
2022-08-12T05:27:58.762Z,3.50
2022-08-12T05:33:05.572Z,2.40
2022-08-12T05:38:33.239Z,3.00
2022-08-12T05:43:36.543Z,2.80
2022-08-12T05:48:40.058Z,2.60
2022-08-12T05:53:43.778Z,3.30
2022-08-12T06:13:58.867Z,2.40
2022-08-12T06:19:02.756Z,2.70
2022-08-12T06:24:06.310Z,1.80
2022-08-12T06:29:09.719Z,1.90
2022-08-12T06:39:38.306Z,1.90
2022-08-12T06:44:41.720Z,2.30
2022-08-12T06:49:44.979Z,2.20
2022-08-12T06:54:48.290Z,1.80
2022-08-12T06:59:51.806Z,1.80
2022-08-12T07:04:55.116Z,1.90
2022-08-12T07:15:12.291Z,1.50
2022-08-12T07:20:49.812Z,1.70
2022-08-12T07:25:41.537Z,2.90
2022-08-12T07:30:49.489Z,1.10
2022-08-12T07:35:54.422Z,1.40
2022-08-12T07:41:03.656Z,1.50
2022-08-12T07:46:10.717Z,1.50
2022-08-12T07:51:25.340Z,1.00
2022-08-12T07:56:31.529Z,1.20
2022-08-12T08:01:38.231Z,1.10
2022-08-12T08:06:43.230Z,1.10
2022-08-12T08:12:04.992Z,2.10
2022-08-12T08:17:10.762Z,1.00
2022-08-12T08:22:14.177Z,1.10
2022-08-12T08:27:17.588Z,1.10
2022-08-12T08:32:20.898Z,1.60
2022-08-12T08:37:24.209Z,1.10
2022-08-12T08:42:40.791Z,0.90
2022-08-12T08:47:48.648Z,1.70
2022-08-12T08:52:52.164Z,1.00
2022-08-12T08:57:55.529Z,1.30
2022-08-12T09:02:59.951Z,1.30
2022-08-12T09:08:12.107Z,1.40
2022-08-12T09:13:29.371Z,2.40
2022-08-12T09:18:52.142Z,3.60
2022-08-12T09:24:06.032Z,1.80
2022-08-12T09:29:12.202Z,1.00
2022-08-12T09:34:25.445Z,1.20
2022-08-12T09:40:02.566Z,1.30
2022-08-12T09:45:22.749Z,1.10
2022-08-12T09:50:28.305Z,1.10
2022-08-12T09:56:05.639Z,0.90
2022-08-12T10:01:10.691Z,4.80
2022-08-12T10:06:27.271Z,1.10
2022-08-12T10:12:05.606Z,0.90
2022-08-12T10:17:14.956Z,1.40
2022-08-12T10:22:36.881Z,0.90
2022-08-12T10:28:04.549Z,3.40
2022-08-12T10:33:18.226Z,1.30
2022-08-12T10:38:38.882Z,1.10
2022-08-12T10:43:55.754Z,1.00
2022-08-12T10:49:06.902Z,1.10
2022-08-12T10:54:28.213Z,0.90
2022-08-12T11:00:29.456Z,1.00
2022-08-12T11:05:00.846Z,1.30
2022-08-12T11:10:26.536Z,1.10
2022-08-12T11:16:02.557Z,1.10
2022-08-12T11:20:58.014Z,1.10
2022-08-12T11:26:05.542Z,1.00
2022-08-12T11:31:14.247Z,1.00
2022-08-12T11:36:21.771Z,0.80
2022-08-12T11:41:31.621Z,1.20
2022-08-12T11:46:38.018Z,1.90
2022-08-12T11:51:41.375Z,1.10
2022-08-12T11:56:59.331Z,1.10
2022-08-12T12:02:05.384Z,0.90
2022-08-12T12:07:11.497Z,1.20
2022-08-12T12:12:15.419Z,1.20
2022-08-12T12:17:18.838Z,1.20
2022-08-12T12:22:30.865Z,1.30
2022-08-12T12:28:04.495Z,1.20
2022-08-12T12:33:10.549Z,4.80
2022-08-12T12:38:25.184Z,2.10
2022-08-12T12:43:43.255Z,1.10
2022-08-12T12:48:48.440Z,1.20
2022-08-12T12:54:09.032Z,1.20
2022-08-12T12:59:55.349Z,1.70
2022-08-12T13:04:37.895Z,1.40
2022-08-12T13:09:41.318Z,1.20
2022-08-12T13:14:50.147Z,1.80
2022-08-12T13:19:55.006Z,1.40
2022-08-12T13:25:00.035Z,2.10
2022-08-12T13:30:10.789Z,1.70
2022-08-12T13:35:19.699Z,1.70
2022-08-12T13:40:40.493Z,1.70
2022-08-12T13:45:44.334Z,1.90
2022-08-12T13:50:48.053Z,1.90
2022-08-12T13:56:01.515Z,1.30
2022-08-12T14:01:06.455Z,4.80
2022-08-12T14:06:15.362Z,1.00
2022-08-12T14:11:27.792Z,1.10
2022-08-12T14:16:37.683Z,1.20
2022-08-12T14:22:00.480Z,1.00
2022-08-12T14:27:08.698Z,1.00
2022-08-12T14:32:16.401Z,1.20
2022-08-12T14:42:46.932Z,1.70
2022-08-12T14:47:58.620Z,2.40
2022-08-12T14:58:27.433Z,1.80
2022-08-12T15:03:52.073Z,1.20
2022-08-12T15:08:55.758Z,1.10
2022-08-12T15:14:00.503Z,1.10
2022-08-12T15:20:28.105Z,1.60
2022-08-12T15:24:33.851Z,3.00
2022-08-12T15:29:37.981Z,2.30
2022-08-12T15:34:41.292Z,2.00
2022-08-12T15:39:55.257Z,2.20
2022-08-12T15:45:08.567Z,2.20
2022-08-12T15:50:26.366Z,2.10
2022-08-12T15:55:33.638Z,2.00
2022-08-12T16:00:40.023Z,1.40
2022-08-12T16:06:11.186Z,1.20
2022-08-12T16:11:15.279Z,1.10
2022-08-12T16:16:23.596Z,1.20
2022-08-12T16:21:52.683Z,1.30
2022-08-12T16:26:54.408Z,1.30
2022-08-12T16:31:59.653Z,1.70
2022-08-12T16:37:09.106Z,1.50
2022-08-12T16:42:13.746Z,1.50
2022-08-12T16:47:18.732Z,1.50
2022-08-12T16:52:22.338Z,1.40
2022-08-12T16:57:35.185Z,1.60
2022-08-12T17:02:40.564Z,1.40
2022-08-12T17:07:52.498Z,1.20
2022-08-12T17:12:59.054Z,1.10
2022-08-12T17:18:38.972Z,1.30
2022-08-12T17:23:33.215Z,1.50
2022-08-12T17:28:53.365Z,1.60
2022-08-12T17:33:58.308Z,1.90
2022-08-12T17:39:09.530Z,1.70
2022-08-12T17:44:12.884Z,1.70
2022-08-12T17:50:01.819Z,2.00
2022-08-12T17:54:45.670Z,1.50
2022-08-12T17:59:50.573Z,1.50
2022-08-12T18:05:09.738Z,1.80
2022-08-12T18:10:39.377Z,3.20
2022-08-12T18:16:06.175Z,2.20
2022-08-12T18:21:11.189Z,1.90
2022-08-12T18:26:26.897Z,3.40
2022-08-12T18:31:43.792Z,2.80
2022-08-12T18:36:50.212Z,2.60
2022-08-12T18:41:55.976Z,2.30
2022-08-12T18:47:02.611Z,2.20
2022-08-12T18:52:11.526Z,1.90
2022-08-12T18:57:45.788Z,2.40
2022-08-12T19:02:42.781Z,3.40
2022-08-12T19:08:01.692Z,2.80
2022-08-12T19:13:25.469Z,3.00
2022-08-12T19:18:40.467Z,2.30
2022-08-12T19:23:44.174Z,2.10
2022-08-12T19:28:49.693Z,1.90
2022-08-12T19:34:25.408Z,3.20
2022-08-12T19:39:23.091Z,2.90
2022-08-12T19:44:29.676Z,2.20
2022-08-12T19:49:34.521Z,1.70
2022-08-12T19:54:43.947Z,3.10
2022-08-12T20:00:03.554Z,3.40
2022-08-12T20:06:05.170Z,3.60
2022-08-12T20:10:35.312Z,3.20
2022-08-12T20:15:44.520Z,3.20
2022-08-12T20:20:48.760Z,3.80
2022-08-12T20:26:01.926Z,3.90
2022-08-12T20:31:12.383Z,3.60
2022-08-12T20:36:41.318Z,3.70
2022-08-12T20:41:41.633Z,3.80
2022-08-12T20:46:45.614Z,3.40
2022-08-12T20:51:55.070Z,4.30
2022-08-12T20:57:01.012Z,3.00
2022-08-12T21:02:05.903Z,2.90
2022-08-12T21:07:11.425Z,2.70
2022-08-12T21:12:28.362Z,2.50
2022-08-12T21:18:08.689Z,2.90
2022-08-12T21:22:58.562Z,2.60
2022-08-12T21:28:01.967Z,3.00
2022-08-12T21:33:10.597Z,2.90
2022-08-12T21:38:18.668Z,2.70
2022-08-12T21:43:22.085Z,2.60
2022-08-12T21:48:26.029Z,2.50
2022-08-12T21:54:06.142Z,2.30
2022-08-12T21:58:53.522Z,2.40
2022-08-12T22:04:15.675Z,2.00
2022-08-12T22:09:22.671Z,2.40
2022-08-12T22:14:28.050Z,2.40
2022-08-12T22:19:33.598Z,2.10
2022-08-12T22:24:38.748Z,2.10
2022-08-12T22:30:01.071Z,2.30
2022-08-12T22:35:29.360Z,2.30
2022-08-12T22:40:33.021Z,2.00
2022-08-12T22:46:03.776Z,2.00
2022-08-12T22:51:07.188Z,1.70
2022-08-12T22:56:14.443Z,1.70
2022-08-12T23:01:51.599Z,2.50
2022-08-12T23:06:44.666Z,2.30
2022-08-12T23:11:51.459Z,2.00
2022-08-12T23:16:56.612Z,2.80
2022-08-12T23:22:36.583Z,2.30
2022-08-12T23:27:51.994Z,2.50
2022-08-12T23:33:00.742Z,2.60
2022-08-12T23:38:04.233Z,2.60
2022-08-12T23:43:12.453Z,2.70
2022-08-12T23:48:23.115Z,2.90
2022-08-12T23:53:35.056Z,2.10
2022-08-12T23:58:49.935Z,4.40
